• Join FlightAware (Why Join?)
  • Login
  • US Flag GB Flag 
18:37 EDT


 

Airport Tracker/Info


-or-


 

Live Flight TrackerFlight Track Log ✈ JBU56 ✈ 01-Oct-2013 ✈ KIAD - KBOS

Flight Track Log - Related Links

Times and Time Zones

All times are in EDT time to prevent confusion due to time zone crossing. See the JBU56 flight status page for this flight to view local times or setup timezone preferences in your user account.

Time Position Orientation Groundspeed Altitude Reporting Facility
EDT Latitude Longitude Course Direction KTS MPH feet Rate Location/Type
09:03 38.9667 -77.5000 90° East 156 180 2,100  Level Potomac TRACON
09:04 39.0000 -77.5000 360° North 200 230 3,700 2,400 Climbing Potomac TRACON
09:05 39.0833 -77.5000 360° North 259 298 6,700 3,000 Climbing Potomac TRACON
09:06 39.1184 -77.1666 78° East  Level Estimated
09:06 39.1500 -77.4500 30° Northeast 301 346 10,100  Level Potomac TRACON
09:07 39.1041 -77.0457 99° East  Level FlightAware Approximate
09:08 39.1618 -76.9484 90° East  Level Estimated
09:08 39.1361 -77.2053 94° East 341 392 13,000  Level Washington Center
09:09 39.0981 -77.0814 112° Southeast 354 407 15,400 2,340 Climbing Washington Center
09:10 39.0933 -76.9475 93° East 369 425 17,800 2,160 Climbing Washington Center
09:11 39.1053 -76.8033 84° East 375 432 19,900 2,160 Climbing Washington Center
09:12 39.1169 -76.6617 84° East 389 448 22,100 1,560 Climbing Washington Center
09:13 39.1286 -76.5119 84° East 403 464 23,000 420 Climbing Washington Center
09:14 39.1381 -76.3675 85° East 408 470 23,000  Level Washington Center
09:15 39.1533 -76.2233 82° East 408 470 23,000  Level Washington Center
09:16 39.1708 -76.0736 81° East 408 470 23,000  Level Washington Center
09:17 39.1858 -75.9289 82° East 408 470 23,000 540 Level Washington Center
09:18 39.2486 -75.8086 56° Northeast 394 453 24,100 1,440 Climbing Washington Center
09:19 39.3281 -75.7069 45° Northeast 390 449 25,900 1,680 Climbing Washington Center
09:20 39.4136 -75.5997 44° Northeast 403 464 27,600 1,860 Climbing Washington Center
09:21 39.4947 -75.4919 46° Northeast 415 478 29,600 960 Climbing Washington Center
09:24 39.6872 -75.2356 46° Northeast 416 479 31,000 360 Climbing New York Center
09:25 39.7775 -75.1061 48° Northeast 422 486 31,000  Level New York Center
09:26 39.8500 -74.9997 48° Northeast 435 501 31,000  Level New York Center
09:27 39.9250 -74.8906 48° Northeast 427 491 31,000  Level New York Center
09:28 40.0078 -74.7817 45° Northeast 422 486 31,000 -120 Level New York Center
09:29 40.0867 -74.6669 48° Northeast 422 486 30,800 -420 Descending New York Center
09:30 40.1656 -74.5544 47° Northeast 422 486 30,200 -660 Descending New York Center
09:31 40.2567 -74.4372 44° Northeast 422 486 29,500 -720 Descending New York Center
09:32 40.3489 -74.3550 34° Northeast 410 472 28,800 -720 Descending New York Center
09:33 40.4431 -74.2669 35° Northeast 405 466 28,100 -720 Descending New York Center
09:34 40.5353 -74.1844 34° Northeast 405 466 27,400 -660 Descending New York Center
09:35 40.6053 -74.0675 52° Northeast 405 466 26,800 -600 Descending New York Center
09:36 40.6589 -73.9333 62° Northeast 402 463 26,200 -660 Descending New York Center
09:38 40.7672 -73.6733 61° Northeast 425 489 25,000 -660 Descending Boston Center
09:39 40.8247 -73.5325 62° Northeast 434 499 24,300 -600 Descending Boston Center
09:40 40.8858 -73.4028 58° Northeast 418 481 23,900 -480 Descending Boston Center
09:41 40.9625 -73.2864 49° Northeast 418 481 23,400 -480 Descending Boston Center
09:42 41.0381 -73.1758 48° Northeast 413 475 23,000 -240 Descending Boston Center
09:43 41.1131 -73.0639 48° Northeast 410 472 23,000  Level Boston Center
09:44 41.1892 -72.9500 48° Northeast 413 475 23,000  Level Boston Center
09:45 41.2531 -72.8250 56° Northeast 414 476 23,000  Level Boston Center
09:46 41.3072 -72.6772 64° Northeast 418 481 23,000  Level Boston Center
09:47 41.3578 -72.5392 64° Northeast 415 478 23,000  Level Boston Center
09:48 41.4081 -72.4008 64° Northeast 414 476 23,000 -600 Level Boston Center
09:49 41.4592 -72.2617 64° Northeast 415 478 21,800 -1,500 Descending Boston Center
09:50 41.5094 -72.1250 64° Northeast 413 475 20,000 -1,920 Descending Boston Center
09:51 41.5650 -71.9711 64° Northeast 405 466 18,000 -1,920 Descending Boston Center
09:52 41.6050 -71.8372 68° East 391 450 16,200 -1,740 Descending Boston Center
09:53 41.6431 -71.7078 68° East 378 435 14,600 -1,680 Descending Boston Center
09:54 41.6819 -71.5764 68° East 362 417 12,900 -1,620 Descending Boston Center
09:55 41.7144 -71.4639 69° East 335 386 11,400 -960 Descending Boston Center
09:56 41.7528 -71.3653 62° Northeast 301 346 11,000 -240 Descending Boston Center
09:57 41.8128 -71.2811 46° Northeast 292 336 11,000 -420 Level Boston Center
09:58 41.8844 -71.2358 25° Northeast 288 331 10,200 -1,200 Descending Boston Center
09:59 41.9572 -71.2019 19° North 280 322 8,600 -1,620 Descending Boston Center
10:00 42.0292 -71.1678 19° North 275 316 7,000 -1,620 Descending Boston Center
10:01 42.1044 -71.1317 20° North 268 308 5,300 -1,560 Descending Boston Center
10:02 42.1667 -71.1000 21° North 256 295 4,100 -1,380 Descending KA90
10:03 42.2333 -71.0667 20° North 238 274 2,800 -1,260 Descending KA90
10:04 42.2833 -71.0500 14° North 170 196 1,600 -960 Descending KA90
10:05 42.3167 -71.0333 20° North 125 144 800 -720 Descending KA90
10:06 42.3500 -71.0167 20° North 126 145 300 -660 Descending KA90
10:08 42.3500 -71.0000 North  Level FlightAware Approximate